Time;durP1;ratioP1;P1;durP2;ratioP2;P2;SDS_P1;SDS_P2;PMS_P1;PMS_P2;Temp;Humidity;BMP_temperature;BMP_pressure;BME280_temperature;BME280_humidity;BME280_pressure;Samples;Min_cycle;Max_cycle;Signal;HPM_P1;HPM_P2
2022/06/22 00:02:52;;;;;;;3.30;2.17;;;;;;;12.60;100.00;100391.59;6085828;29;20528;-92
2022/06/22 00:05:55;;;;;;;3.97;2.38;;;;;;;12.62;100.00;100385.28;6082214;29;20384;-92
2022/06/22 00:08:57;;;;;;;2.55;1.90;;;;;;;12.63;100.00;100381.72;6085121;29;20063;-91
2022/06/22 00:12:00;;;;;;;3.45;2.50;;;;;;;12.63;100.00;100378.31;6086780;29;20040;-93
2022/06/22 00:15:17;;;;;;;2.50;2.13;;;;;;;12.61;100.00;100381.03;6084065;29;20048;-92
2022/06/22 00:18:28;;;;;;;4.88;2.40;;;;;;;12.59;100.00;100392.53;6074605;29;20115;-93
2022/06/22 00:21:35;;;;;;;6.10;2.45;;;;;;;12.57;100.00;100395.28;6074735;29;20044;-92
2022/06/22 00:24:40;;;;;;;3.13;2.20;;;;;;;12.53;100.00;100395.69;6085671;29;20143;-92
2022/06/22 00:27:42;;;;;;;3.88;2.42;;;;;;;12.47;100.00;100395.28;6084120;29;20732;-92
2022/06/22 00:30:50;;;;;;;3.92;2.30;;;;;;;12.46;100.00;100400.59;6080972;29;20044;-92
2022/06/22 00:34:10;;;;;;;2.95;2.53;;;;;;;12.48;100.00;100404.69;6091510;29;20044;-92
2022/06/22 00:37:16;;;;;;;3.72;2.30;;;;;;;12.46;100.00;100408.38;6074141;29;20048;-92
2022/06/22 00:40:19;;;;;;;3.33;2.15;;;;;;;12.45;100.00;100412.75;6069249;29;20060;-92
2022/06/22 00:43:25;;;;;;;2.75;2.20;;;;;;;12.42;100.00;100420.81;6087602;29;20044;-92
2022/06/22 00:46:28;;;;;;;3.65;2.45;;;;;;;12.40;100.00;100414.94;6079495;29;20498;-92
2022/06/22 00:49:31;;;;;;;4.60;2.65;;;;;;;12.38;100.00;100413.44;6080828;29;20507;-93
2022/06/22 00:52:56;;;;;;;3.80;2.58;;;;;;;12.38;100.00;100411.66;6086299;29;20487;-92
2022/06/22 00:56:20;;;;;;;3.53;2.40;;;;;;;12.40;100.00;100411.53;6054340;29;20084;-92
2022/06/22 01:00:00;;;;;;;4.28;2.70;;;;;;;12.39;100.00;100428.06;6064718;29;20048;-92
2022/06/22 01:03:26;;;;;;;6.18;2.47;;;;;;;12.35;100.00;100426.69;6058303;29;20129;-91
2022/06/22 01:06:49;;;;;;;3.88;2.40;;;;;;;12.35;100.00;100421.50;6061497;29;20056;-92
2022/06/22 01:10:03;;;;;;;2.53;2.33;;;;;;;12.33;100.00;100415.63;6060043;29;20079;-92
2022/06/22 01:13:38;;;;;;;5.90;2.60;;;;;;;12.39;100.00;100412.47;6044521;29;20676;-92
2022/06/22 01:16:46;;;;;;;2.63;2.13;;;;;;;12.42;100.00;100418.22;6059088;29;20202;-92
2022/06/22 01:19:52;;;;;;;5.63;2.65;;;;;;;12.41;100.00;100405.38;6060148;29;20057;-92
2022/06/22 01:22:56;;;;;;;4.60;2.20;;;;;;;12.38;100.00;100403.88;6051080;29;20076;-92
2022/06/22 01:26:29;;;;;;;3.25;2.30;;;;;;;12.37;100.00;100399.66;6056477;29;20060;-92
2022/06/22 01:29:31;;;;;;;4.88;2.50;;;;;;;12.34;100.00;100404.28;6059579;29;20710;-92
2022/06/22 01:32:35;;;;;;;3.50;2.63;;;;;;;12.30;100.00;100401.16;6063996;29;20053;-92
2022/06/22 01:35:38;;;;;;;3.75;2.50;;;;;;;12.22;100.00;100390.59;6091828;29;20119;-92
2022/06/22 01:38:41;;;;;;;3.83;2.80;;;;;;;12.20;100.00;100385.56;6090758;29;20106;-92
2022/06/22 01:42:01;;;;;;;5.35;3.28;;;;;;;12.20;100.00;100385.56;6086207;29;20036;-91
2022/06/22 01:45:19;;;;;;;3.00;2.65;;;;;;;12.19;100.00;100370.13;6076213;29;20099;-92
2022/06/22 01:48:31;;;;;;;3.30;2.67;;;;;;;12.16;100.00;100380.78;6078279;29;20043;-91
2022/06/22 01:51:41;;;;;;;3.88;2.50;;;;;;;12.14;100.00;100375.72;6081283;29;20098;-91
2022/06/22 01:54:53;;;;;;;5.93;2.88;;;;;;;12.13;100.00;100381.06;6080634;29;20083;-92
2022/06/22 01:58:18;;;;;;;7.55;2.92;;;;;;;12.10;100.00;100371.75;6084487;29;20622;-92
2022/06/22 02:01:43;;;;;;;5.05;2.80;;;;;;;12.06;100.00;100360.00;6079545;29;20172;-92
2022/06/22 02:04:55;;;;;;;3.15;2.80;;;;;;;12.05;100.00;100355.78;6074758;29;20058;-92
2022/06/22 02:08:36;;;;;;;6.05;3.53;;;;;;;12.04;100.00;100344.56;6084110;29;20514;-92
2022/06/22 02:11:47;;;;;;;4.25;3.22;;;;;;;12.08;100.00;100339.94;6077747;29;20083;-92
2022/06/22 02:14:55;;;;;;;4.13;2.92;;;;;;;12.14;100.00;100341.97;6077334;29;20806;-92
2022/06/22 02:17:57;;;;;;;5.95;3.05;;;;;;;12.16;100.00;100340.06;6089930;29;20044;-92
2022/06/22 02:21:07;;;;;;;5.43;3.00;;;;;;;12.19;100.00;100346.75;6081291;29;20052;-91
2022/06/22 02:24:09;;;;;;;3.78;3.33;;;;;;;12.16;100.00;100347.03;6067444;29;20090;-92
2022/06/22 02:27:16;;;;;;;5.45;3.28;;;;;;;12.15;100.00;100345.38;6084884;29;20044;-92
2022/06/22 02:30:18;;;;;;;3.42;2.80;;;;;;;12.14;100.00;100331.59;6087896;29;20052;-92
2022/06/22 02:33:20;;;;;;;3.00;2.80;;;;;;;12.13;100.00;100329.16;6083791;29;20063;-91
2022/06/22 02:36:30;;;;;;;4.18;3.20;;;;;;;12.06;100.00;100327.09;6081320;29;20643;-91
2022/06/22 02:39:34;;;;;;;4.55;3.47;;;;;;;12.05;100.00;100328.06;6074899;29;20052;-91
2022/06/22 02:45:57;;;;;;;4.72;3.45;;;;;;;11.93;100.00;100346.47;6081034;29;20168;-91
2022/06/22 02:49:05;;;;;;;5.32;2.75;;;;;;;11.88;100.00;100353.84;6080657;29;20056;-91
2022/06/22 02:52:11;;;;;;;4.53;3.10;;;;;;;11.82;100.00;100344.78;6083518;29;20450;-92
2022/06/22 02:55:16;;;;;;;3.85;2.90;;;;;;;11.78;100.00;100339.03;6080521;29;20048;-91
2022/06/22 02:58:33;;;;;;;6.03;2.88;;;;;;;11.71;100.00;100350.91;6088064;29;20274;-92
2022/06/22 03:01:37;;;;;;;4.55;3.17;;;;;;;11.64;100.00;100342.81;6085388;29;20052;-92
2022/06/22 03:04:41;;;;;;;4.63;3.28;;;;;;;11.62;100.00;100336.13;6078697;29;20056;-92
2022/06/22 03:07:56;;;;;;;3.92;3.53;;;;;;;11.56;100.00;100336.69;6089721;29;20564;-92
2022/06/22 03:11:07;;;;;;;5.80;3.05;;;;;;;11.57;100.00;100333.94;6083123;29;20163;-91
2022/06/22 03:14:30;;;;;;;6.10;3.17;;;;;;;11.60;100.00;100348.41;6094097;29;20080;-92
2022/06/22 03:17:38;;;;;;;5.07;3.20;;;;;;;11.64;100.00;100347.19;6090184;29;20556;-91
2022/06/22 03:20:51;;;;;;;5.47;3.45;;;;;;;11.69;100.00;100339.03;6080888;29;20040;-92
2022/06/22 03:24:32;;;;;;;6.70;4.00;;;;;;;11.71;100.00;100347.50;6082658;29;20536;-92
2022/06/22 03:27:39;;;;;;;5.68;3.40;;;;;;;11.74;100.00;100353.22;6039536;29;20057;-92
2022/06/22 03:30:56;;;;;;;8.98;4.20;;;;;;;11.76;100.00;100350.50;6025794;29;20533;-92
2022/06/22 03:34:09;;;;;;;6.70;3.80;;;;;;;11.80;100.00;100346.66;6051111;29;20085;-92
2022/06/22 03:37:47;;;;;;;7.47;4.20;;;;;;;11.87;100.00;100341.81;6041327;29;20063;-92
2022/06/22 03:40:59;;;;;;;6.57;3.63;;;;;;;11.90;100.00;100334.59;6041225;29;20049;-92
2022/06/22 03:44:31;;;;;;;7.05;3.88;;;;;;;12.00;100.00;100350.16;6025139;29;20499;-93
2022/06/22 03:47:56;;;;;;;6.32;3.70;;;;;;;12.15;100.00;100346.22;6041151;29;20049;-92
2022/06/22 03:51:16;;;;;;;6.03;4.07;;;;;;;12.29;100.00;100348.41;6038489;29;20084;-92
2022/06/22 03:54:28;;;;;;;4.75;3.60;;;;;;;12.47;100.00;100363.28;6041576;29;20056;-92
2022/06/22 03:57:37;;;;;;;6.22;3.80;;;;;;;12.56;100.00;100383.25;6038824;29;20931;-92
2022/06/22 04:00:41;;;;;;;8.10;3.22;;;;;;;12.61;100.00;100375.84;6035008;29;20056;-92
2022/06/22 04:03:43;;;;;;;4.63;3.92;;;;;;;12.61;100.00;100354.25;6041324;29;20446;-92
2022/06/22 04:06:49;;;;;;;5.88;3.83;;;;;;;12.58;100.00;100351.94;6080659;29;20052;-92
2022/06/22 04:09:55;;;;;;;3.53;3.10;;;;;;;12.59;100.00;100353.56;6085304;29;20056;-92
2022/06/22 04:13:00;;;;;;;4.70;3.85;;;;;;;12.57;100.00;100340.75;6082160;29;20048;-91
2022/06/22 04:16:29;;;;;;;4.85;3.35;;;;;;;12.61;100.00;100343.88;6075554;29;21763;-92
2022/06/22 04:19:43;;;;;;;6.15;3.70;;;;;;;12.68;100.00;100345.78;6083267;29;20128;-92
2022/06/22 04:22:49;;;;;;;4.90;3.65;;;;;;;12.77;100.00;100354.53;6086603;29;20058;-92
2022/06/22 04:25:56;;;;;;;6.88;3.85;;;;;;;12.82;100.00;100346.28;6087974;29;20762;-92
2022/06/22 04:29:04;;;;;;;7.00;3.58;;;;;;;12.85;100.00;100338.25;6091847;29;20061;-92
2022/06/22 04:32:16;;;;;;;5.28;3.55;;;;;;;12.89;100.00;100342.16;6087687;29;20067;-92
2022/06/22 04:35:36;;;;;;;6.03;3.60;;;;;;;12.86;100.00;100334.66;6092848;29;20070;-92
2022/06/22 04:39:07;;;;;;;6.05;3.42;;;;;;;12.80;100.00;100330.88;6084515;29;20049;-92
2022/06/22 04:42:10;;;;;;;8.02;3.65;;;;;;;12.79;100.00;100343.97;6084968;29;20048;-92
2022/06/22 04:45:33;;;;;;;4.15;3.75;;;;;;;12.80;100.00;100343.84;6093919;29;20047;-92
2022/06/22 04:48:40;;;;;;;3.83;3.53;;;;;;;12.80;100.00;100343.84;6085945;29;20155;-92
2022/06/22 04:51:50;;;;;;;5.00;3.83;;;;;;;12.86;100.00;100342.47;6086118;29;20082;-92
2022/06/22 04:54:55;;;;;;;5.10;3.10;;;;;;;12.89;100.00;100340.41;6086140;29;20063;-92
2022/06/22 04:58:02;;;;;;;4.68;3.30;;;;;;;12.92;100.00;100352.31;6092639;29;20501;-92
2022/06/22 05:01:05;;;;;;;7.15;3.38;;;;;;;12.93;100.00;100349.56;6090336;29;20051;-92
2022/06/22 05:04:28;;;;;;;4.30;3.30;;;;;;;12.96;100.00;100352.84;6089373;29;20394;-92
2022/06/22 05:07:50;;;;;;;5.65;3.30;;;;;;;12.98;100.00;100358.72;6089977;29;20040;-92
2022/06/22 05:11:10;;;;;;;;;;;;;;;13.05;100.00;100359.78;6095126;29;20052;-92
2022/06/22 05:14:26;;;;;;;5.35;3.22;;;;;;;13.10;100.00;100362.78;6088091;29;19935;-92
2022/06/22 05:17:36;;;;;;;3.83;2.55;;;;;;;13.13;100.00;100373.69;6094706;29;20044;-93
2022/06/22 05:20:45;;;;;;;4.30;3.00;;;;;;;13.20;100.00;100378.34;6088110;29;20175;-93
2022/06/22 05:23:57;;;;;;;4.00;3.13;;;;;;;13.28;100.00;100381.09;6088655;29;20087;-93
2022/06/22 05:27:04;;;;;;;4.95;3.05;;;;;;;13.40;100.00;100385.13;6094770;29;20127;-92
2022/06/22 05:30:07;;;;;;;3.40;3.10;;;;;;;13.48;100.00;100395.63;6077809;29;20059;-93
2022/06/22 05:33:14;;;;;;;5.55;3.45;;;;;;;13.55;100.00;100398.50;6086972;29;20058;-92
2022/06/22 05:36:20;;;;;;;6.07;3.38;;;;;;;13.66;100.00;100397.47;6087182;29;20352;-93
2022/06/22 05:39:22;;;;;;;5.35;3.70;;;;;;;13.70;100.00;100393.63;6086353;29;20217;-92
2022/06/22 05:42:28;;;;;;;5.35;3.13;;;;;;;13.73;100.00;100398.53;6091854;29;20048;-93
2022/06/22 05:45:36;;;;;;;4.13;3.15;;;;;;;13.76;100.00;100393.88;6092357;29;20881;-93
2022/06/22 05:48:42;;;;;;;3.92;2.78;;;;;;;13.83;100.00;100390.69;6088971;29;20051;-92
2022/06/22 05:51:57;;;;;;;6.82;3.40;;;;;;;13.90;100.00;100387.34;6092158;29;20047;-91
2022/06/22 05:55:08;;;;;;;8.30;3.60;;;;;;;14.00;100.00;100398.53;6086600;29;20048;-92
2022/06/22 05:58:18;;;;;;;6.82;3.20;;;;;;;14.07;100.00;100390.13;6090794;29;20048;-92
2022/06/22 06:01:40;;;;;;;6.57;3.28;;;;;;;14.10;100.00;100390.66;6088293;29;20673;-93
2022/06/22 06:04:50;;;;;;;6.50;3.30;;;;;;;14.17;100.00;100396.09;6091810;29;20128;-93
2022/06/22 06:07:55;;;;;;;5.07;3.53;;;;;;;14.21;100.00;100387.84;6082625;29;20143;-92
2022/06/22 06:10:58;;;;;;;6.45;3.92;;;;;;;14.22;100.00;100386.88;6082756;29;20052;-93
2022/06/22 06:14:05;;;;;;;5.05;3.53;;;;;;;14.33;100.00;100404.03;6081475;29;20079;-93
2022/06/22 06:17:19;;;;;;;4.80;3.20;;;;;;;14.41;100.00;100411.16;6081253;29;20055;-93
2022/06/22 06:20:28;;;;;;;5.78;2.88;;;;;;;14.53;100.00;100416.91;6089558;29;20040;-93
2022/06/22 06:23:37;;;;;;;5.70;3.53;;;;;;;14.64;100.00;100408.91;6088365;29;20150;-93
2022/06/22 06:30:28;;;;;;;4.10;3.53;;;;;;;14.79;100.00;100415.22;6091498;29;20048;-93
2022/06/22 06:33:39;;;;;;;5.47;3.40;;;;;;;14.83;100.00;100406.16;6083370;29;20059;-93
2022/06/22 06:37:10;;;;;;;4.45;3.28;;;;;;;14.95;100.00;100414.50;6092697;29;20045;-94
2022/06/22 06:40:22;;;;;;;6.90;3.38;;;;;;;15.08;100.00;100414.13;6077772;29;20040;-94
2022/06/22 06:43:52;;;;;;;6.25;3.60;;;;;;;15.23;100.00;100414.41;6088064;29;20048;-93
2022/06/22 06:47:00;;;;;;;10.05;4.28;;;;;;;15.25;100.00;100396.78;6084478;29;20055;-93
2022/06/22 06:50:34;;;;;;;5.53;3.30;;;;;;;15.31;100.00;100390.97;6084488;29;20048;-94
2022/06/22 06:53:43;;;;;;;12.68;4.55;;;;;;;15.37;100.00;100398.16;6081619;29;20064;-93
2022/06/22 06:57:01;;;;;;;6.32;3.70;;;;;;;15.45;100.00;100398.22;6081472;29;20052;-94
2022/06/22 07:00:06;;;;;;;5.78;3.97;;;;;;;15.61;100.00;100397.44;6092988;29;20056;-94
2022/06/22 07:03:17;;;;;;;7.18;3.70;;;;;;;15.69;100.00;100386.22;6089835;29;20044;-93
2022/06/22 07:06:19;;;;;;;8.77;3.80;;;;;;;15.77;100.00;100385.47;6091089;29;20036;-94
2022/06/22 07:09:33;;;;;;;6.55;3.88;;;;;;;15.83;100.00;100384.84;6088933;29;20040;-93
2022/06/22 07:12:42;;;;;;;7.55;4.38;;;;;;;15.97;100.00;100386.00;6090753;29;20044;-94
2022/06/22 07:15:49;;;;;;;6.45;3.80;;;;;;;16.05;100.00;100383.41;6086355;29;20048;-94
2022/06/22 07:19:31;;;;;;;15.57;3.90;;;;;;;16.21;100.00;100390.47;6082284;29;20052;-94
2022/06/22 07:22:50;;;;;;;5.47;3.88;;;;;;;16.32;100.00;100393.59;6065389;29;20147;-95
2022/06/22 07:26:11;;;;;;;7.68;3.90;;;;;;;16.39;100.00;100390.31;6060169;29;20135;-94
2022/06/22 07:29:22;;;;;;;;;;;;;;;16.40;100.00;100387.56;6055398;29;20105;-94
2022/06/22 07:32:29;;;;;;;7.15;3.80;;;;;;;16.46;100.00;100393.91;6060309;29;19935;-94
2022/06/22 07:35:36;;;;;;;7.55;3.60;;;;;;;16.51;100.00;100387.22;6060935;29;20064;-94
2022/06/22 07:39:04;;;;;;;7.38;3.25;;;;;;;16.64;100.00;100386.72;6060083;29;20052;-94
2022/06/22 07:42:11;;;;;;;6.40;2.97;;;;;;;16.71;100.00;100384.28;6051094;29;20514;-95
2022/06/22 07:45:17;;;;;;;5.70;2.90;;;;;;;16.77;100.00;100384.44;6064166;29;20044;-94
2022/06/22 07:48:23;;;;;;;5.43;3.40;;;;;;;16.86;100.00;100384.47;6058724;29;20225;-93
2022/06/22 07:51:28;;;;;;;4.38;3.08;;;;;;;16.94;99.25;100381.81;6048515;29;20052;-94
2022/06/22 07:54:42;;;;;;;6.10;2.83;;;;;;;17.12;96.91;100387.69;6060427;29;20216;-94
2022/06/22 07:58:02;;;;;;;4.80;3.25;;;;;;;17.25;93.83;100375.88;6090879;29;20190;-96
2022/06/22 08:01:09;;;;;;;4.00;2.70;;;;;;;17.35;92.79;100374.69;6086366;29;20055;-94
2022/06/22 08:04:29;;;;;;;9.02;3.10;;;;;;;17.39;93.65;100380.38;6090831;29;20528;-95
2022/06/22 08:07:42;;;;;;;9.27;5.35;;;;;;;17.47;93.35;100380.38;6101864;29;20047;-95
2022/06/22 08:10:52;;;;;;;6.43;4.32;;;;;;;17.56;91.68;100373.28;6097901;29;20510;-95
2022/06/22 08:14:27;;;;;;;5.93;2.60;;;;;;;17.64;90.35;100368.84;6097652;29;20486;-95
2022/06/22 08:17:32;;;;;;;5.95;2.70;;;;;;;17.77;90.29;100370.09;6081028;29;20058;-95
2022/06/22 08:20:40;;;;;;;5.00;2.53;;;;;;;17.85;90.11;100362.22;6098913;29;20091;-95
2022/06/22 08:23:42;;;;;;;2.88;2.55;;;;;;;17.96;88.86;100371.47;6098725;29;20080;-94
2022/06/22 08:26:47;;;;;;;4.38;2.53;;;;;;;18.01;88.30;100372.59;6088416;29;20099;-95
2022/06/22 08:29:51;;;;;;;7.70;2.95;;;;;;;18.14;87.42;100379.88;6100044;29;20048;-96
2022/06/22 08:33:07;;;;;;;4.95;2.50;;;;;;;18.22;85.67;100376.41;6084201;29;20064;-95
2022/06/22 08:36:17;;;;;;;4.53;2.65;;;;;;;18.21;83.38;100378.22;6096661;29;20127;-96
2022/06/22 08:39:29;;;;;;;5.57;3.05;;;;;;;18.22;82.01;100385.06;6086652;29;20040;-95
2022/06/22 08:42:46;;;;;;;4.25;2.63;;;;;;;18.30;80.48;100374.53;6096862;29;20056;-95
2022/06/22 08:46:03;;;;;;;4.35;2.45;;;;;;;18.42;79.63;100385.41;6099341;29;20176;-95
2022/06/22 08:49:43;;;;;;;4.55;2.90;;;;;;;18.52;79.26;100379.94;6096634;29;20418;-95
2022/06/22 08:52:51;;;;;;;4.10;2.73;;;;;;;18.63;79.90;100376.06;6099748;29;20211;-94
2022/06/22 08:56:48;;;;;;;4.70;2.75;;;;;;;18.86;80.21;100378.69;6095190;29;20585;-95
2022/06/22 08:59:59;;;;;;;4.75;2.97;;;;;;;18.94;76.38;100384.66;6094794;29;20212;-95
2022/06/22 09:03:41;;;;;;;5.90;2.38;;;;;;;19.01;74.81;100386.56;6094329;29;20067;-94
2022/06/22 09:07:21;;;;;;;6.78;2.53;;;;;;;19.18;74.36;100381.94;6087985;29;20068;-95
2022/06/22 09:10:40;;;;;;;6.00;2.83;;;;;;;19.30;72.38;100376.09;6088477;29;20047;-96
2022/06/22 09:13:50;;;;;;;6.47;3.35;;;;;;;19.39;71.35;100374.16;6086744;29;20195;-95
2022/06/22 09:17:03;;;;;;;4.72;3.08;;;;;;;19.50;70.59;100368.47;6090241;29;20059;-96
2022/06/22 09:20:12;;;;;;;5.03;2.30;;;;;;;19.53;66.06;100364.66;6089138;29;20123;-96
2022/06/22 09:23:21;;;;;;;4.82;2.47;;;;;;;19.50;65.76;100365.84;6095818;29;20548;-96
2022/06/22 09:27:04;;;;;;;4.43;2.28;;;;;;;19.50;63.47;100365.00;6084503;29;20044;-96
2022/06/22 09:30:28;;;;;;;5.25;2.42;;;;;;;19.61;59.69;100368.97;6018894;29;20071;-96
2022/06/22 09:34:07;;;;;;;3.95;2.15;;;;;;;19.69;62.74;100382.03;6014523;29;20470;-96
2022/06/22 09:37:46;;;;;;;5.60;2.20;;;;;;;19.87;65.43;100382.44;6029072;29;20651;-95
2022/06/22 09:41:24;;;;;;;2.85;1.98;;;;;;;20.04;61.89;100390.09;6031803;29;20069;-96
2022/06/22 09:44:50;;;;;;;4.40;1.85;;;;;;;20.11;59.53;100391.78;6032529;29;20128;-95
2022/06/22 09:48:11;;;;;;;4.38;2.08;;;;;;;20.20;57.50;100384.59;6026963;29;20236;-96
2022/06/22 09:51:55;;;;;;;3.55;1.88;;;;;;;20.32;58.36;100377.84;6030002;29;20682;-96
2022/06/22 09:58:47;;;;;;;5.78;1.77;;;;;;;20.44;54.92;100383.38;6049255;29;20049;-96
2022/06/22 10:02:13;;;;;;;4.55;1.80;;;;;;;20.51;54.27;100386.09;6064097;29;20102;-96
2022/06/22 10:05:53;;;;;;;5.03;2.33;;;;;;;20.62;51.99;100390.84;7030047;23;20358;-96
2022/06/22 10:12:55;;;;;;;2.22;1.98;;;;;;;20.77;52.63;100396.00;6256997;23;20051;-96
2022/06/22 10:16:11;;;;;;;3.78;1.90;;;;;;;20.75;53.20;100380.44;6152608;28;20047;-96
2022/06/22 10:19:33;;;;;;;3.55;1.80;;;;;;;20.56;54.20;100391.63;6147847;28;20129;-96
2022/06/22 10:22:40;;;;;;;2.28;1.80;;;;;;;20.40;53.02;100382.16;6149521;28;20255;-96
2022/06/22 10:26:29;;;;;;;4.45;1.95;;;;;;;20.32;53.29;100374.38;6149138;28;20047;-96
2022/06/22 10:30:12;;;;;;;3.45;1.60;;;;;;;20.31;52.44;100380.66;6150054;28;20116;-96
2022/06/22 10:33:49;;;;;;;1.92;1.33;;;;;;;20.26;54.35;100381.22;6164999;28;20058;-96
2022/06/22 10:37:40;;;;;;;5.65;1.65;;;;;;;20.17;53.96;100367.41;6154761;28;20058;-96
2022/06/22 10:48:15;;;;;;;4.90;1.80;;;;;;;20.58;53.28;100368.56;6118517;29;20054;-96
2022/06/22 10:51:40;;;;;;;4.38;1.63;;;;;;;20.82;52.95;100368.16;6239767;23;20073;-91
2022/06/22 10:55:02;;;;;;;4.43;1.63;;;;;;;21.15;51.52;100369.34;6126152;28;20101;-91
2022/06/22 10:58:32;;;;;;;3.38;1.77;;;;;;;21.40;49.90;100372.34;6127398;29;20058;-91
2022/06/22 11:02:02;;;;;;;3.03;1.70;;;;;;;21.70;48.81;100380.75;6127823;28;20485;-91
2022/06/22 11:05:38;;;;;;;2.78;2.20;;;;;;;21.95;48.64;100378.41;6132311;29;20055;-87
2022/06/22 11:08:53;;;;;;;2.45;1.60;;;;;;;22.12;48.89;100374.38;6129471;29;20051;-89
2022/06/22 11:12:22;;;;;;;3.60;1.63;;;;;;;22.32;45.60;100379.69;6122191;29;20047;-88
2022/06/22 11:15:49;;;;;;;2.08;1.30;;;;;;;22.39;44.80;100390.25;6129699;28;20105;-87
2022/06/22 11:19:28;;;;;;;4.80;1.60;;;;;;;22.48;42.63;100390.84;6128070;29;20520;-87
2022/06/22 11:22:35;;;;;;;1.75;1.30;;;;;;;22.62;44.98;100394.31;6132924;28;20043;-86
2022/06/22 11:33:11;;;;;;;4.40;2.22;;;;;;;23.07;41.98;100382.09;6138556;29;20036;-90
2022/06/22 11:36:35;;;;;;;2.03;1.17;;;;;;;23.41;44.25;100372.25;6132319;28;20556;-90
2022/06/22 11:40:34;;;;;;;2.83;1.17;;;;;;;23.69;42.11;100376.41;6128809;29;20355;-89
2022/06/22 11:43:55;;;;;;;3.13;1.42;;;;;;;23.71;40.27;100375.16;6131012;29;20056;-89
2022/06/22 11:47:05;;;;;;;6.30;1.50;;;;;;;23.61;39.78;100372.97;6130730;29;20047;-88
2022/06/22 11:50:32;;;;;;;3.70;1.50;;;;;;;23.48;40.49;100373.03;6129377;29;20658;-90
2022/06/22 11:53:46;;;;;;;2.45;1.20;;;;;;;23.57;40.29;100363.84;6137757;29;20496;-89
2022/06/22 11:57:03;;;;;;;1.13;1.10;;;;;;;23.87;41.11;100360.66;6135868;29;20047;-89
2022/06/22 12:00:08;;;;;;;2.92;1.35;;;;;;;24.15;38.56;100348.88;6126432;29;20082;-90
2022/06/22 12:03:40;;;;;;;2.35;1.50;;;;;;;24.39;38.93;100344.63;6139772;29;20074;-92
2022/06/22 12:07:15;;;;;;;3.03;1.25;;;;;;;24.61;39.46;100337.94;6129496;29;20047;-89
2022/06/22 12:10:48;;;;;;;4.18;3.03;;;;;;;24.96;38.33;100336.56;6124800;29;20086;-88
2022/06/22 12:17:44;;;;;;;2.75;1.50;;;;;;;25.71;39.12;100318.53;6157109;28;20058;-88
2022/06/22 12:21:11;;;;;;;3.08;1.10;;;;;;;25.85;37.07;100323.63;6159271;28;20063;-89
2022/06/22 12:24:44;;;;;;;1.30;1.17;;;;;;;25.79;35.36;100318.19;6158639;28;20773;-89
2022/06/22 12:28:14;;;;;;;1.20;1.10;;;;;;;25.94;33.26;100307.19;6159811;28;20055;-90
2022/06/22 12:31:25;;;;;;;3.50;1.42;;;;;;;26.31;34.73;100314.97;6156444;28;20651;-90
2022/06/22 12:34:44;;;;;;;2.60;1.20;;;;;;;26.31;35.88;100309.66;6154070;28;20054;-88
2022/06/22 12:37:57;;;;;;;2.63;1.15;;;;;;;26.40;32.45;100316.22;6143152;28;20059;-89
2022/06/22 12:41:10;;;;;;;2.05;1.10;;;;;;;26.35;32.95;100308.16;6159736;28;20054;-89
2022/06/22 12:44:38;;;;;;;1.52;1.27;;;;;;;26.41;32.36;100295.81;6158928;28;20062;-88
2022/06/22 12:48:19;;;;;;;0.93;0.90;;;;;;;26.64;33.94;100297.66;6156309;28;20177;-89
2022/06/22 12:51:28;;;;;;;1.70;1.20;;;;;;;26.90;32.95;100301.66;6132977;28;20063;-89
2022/06/22 12:54:36;;;;;;;2.13;1.27;;;;;;;27.12;33.11;100290.41;6132095;29;20051;-90
2022/06/22 12:57:43;;;;;;;1.98;1.38;;;;;;;27.37;31.69;100295.41;6125860;28;20047;-89
2022/06/22 13:00:45;;;;;;;5.50;1.20;;;;;;;27.47;31.01;100293.72;6128593;29;20401;-89
2022/06/22 13:04:02;;;;;;;2.45;1.30;;;;;;;27.52;30.07;100298.34;6119545;28;20048;-89
2022/06/22 13:07:12;;;;;;;1.33;1.00;;;;;;;27.45;29.67;100292.34;6129852;29;20051;-89
2022/06/22 13:10:17;;;;;;;1.58;1.20;;;;;;;27.63;32.75;100288.72;6124963;29;20051;-90
2022/06/22 13:13:53;;;;;;;2.35;1.20;;;;;;;27.80;29.76;100278.06;6129939;29;20039;-89
2022/06/22 13:17:39;;;;;;;2.25;1.20;;;;;;;27.82;30.10;100276.00;6127856;28;20055;-89
2022/06/22 13:20:56;;;;;;;2.08;1.10;;;;;;;28.21;32.66;100276.06;6128611;29;20039;-89
2022/06/22 13:24:29;;;;;;;1.88;1.10;;;;;;;28.36;29.90;100270.97;6144872;28;20054;-89
2022/06/22 13:27:52;;;;;;;2.17;1.85;;;;;;;28.37;31.69;100269.91;6129067;28;20046;-89
2022/06/22 13:30:58;;;;;;;1.88;0.90;;;;;;;28.74;29.29;100264.00;6128302;28;20221;-89
2022/06/22 13:34:24;;;;;;;1.75;1.10;;;;;;;28.71;30.77;100262.66;6123542;29;20047;-88
2022/06/22 13:38:05;;;;;;;2.72;1.23;;;;;;;28.65;28.66;100258.31;6128742;29;20055;-89
2022/06/22 13:41:14;;;;;;;1.20;1.10;;;;;;;28.66;28.61;100256.47;6129524;28;20043;-89
2022/06/22 13:44:37;;;;;;;2.97;1.05;;;;;;;28.58;29.55;100247.06;6132820;29;20043;-88
2022/06/22 13:48:12;;;;;;;2.00;1.00;;;;;;;28.73;29.28;100249.09;6128705;29;20043;-89
2022/06/22 13:51:57;;;;;;;3.13;1.17;;;;;;;28.82;28.02;100238.78;6133992;29;20115;-89
2022/06/22 13:55:38;;;;;;;7.07;1.30;;;;;;;28.93;27.30;100235.19;6132075;29;20050;-89
2022/06/22 13:58:51;;;;;;;4.18;1.20;;;;;;;29.19;27.73;100236.28;6127772;28;20047;-90
2022/06/22 14:02:14;;;;;;;2.45;1.35;;;;;;;29.28;27.59;100237.44;6117026;28;20461;-89
2022/06/22 14:05:31;;;;;;;1.88;1.10;;;;;;;29.28;27.76;100225.97;6127904;29;20047;-89
2022/06/22 14:08:48;;;;;;;2.30;1.38;;;;;;;29.28;26.45;100226.78;6129101;28;20039;-89
2022/06/22 14:12:08;;;;;;;1.10;1.00;;;;;;;29.33;26.17;100237.50;6127215;28;20466;-89
2022/06/22 14:15:29;;;;;;;2.85;1.10;;;;;;;29.37;27.73;100230.59;6134456;28;20058;-90
2022/06/22 14:18:36;;;;;;;1.92;1.20;;;;;;;29.39;24.83;100233.00;6124986;29;20122;-90
2022/06/22 14:21:58;;;;;;;2.33;1.23;;;;;;;29.41;26.09;100236.22;6124255;28;20058;-88
2022/06/22 14:25:01;;;;;;;2.58;1.40;;;;;;;29.45;29.65;100237.34;6123758;29;20561;-90
2022/06/22 14:28:12;;;;;;;1.58;1.20;;;;;;;29.71;27.97;100229.56;6127996;28;20409;-88
2022/06/22 14:31:23;;;;;;;1.05;0.98;;;;;;;29.79;26.20;100227.25;6129353;29;20043;-89
2022/06/22 14:34:36;;;;;;;1.45;1.00;;;;;;;29.86;27.22;100226.19;6131370;29;20051;-89
2022/06/22 14:38:23;;;;;;;1.02;0.93;;;;;;;29.88;25.90;100218.75;6131241;29;20051;-90
2022/06/22 14:41:34;;;;;;;1.67;1.00;;;;;;;29.98;25.29;100229.50;6144376;28;20063;-90
2022/06/22 14:44:45;;;;;;;2.92;1.50;;;;;;;30.04;26.35;100223.13;6152812;28;20050;-89
2022/06/22 14:48:13;;;;;;;1.63;1.10;;;;;;;30.26;27.36;100218.47;6153655;28;20063;-90
2022/06/22 14:51:23;;;;;;;1.40;0.98;;;;;;;30.29;26.01;100221.69;6142670;28;20662;-89
2022/06/22 14:54:38;;;;;;;1.33;1.10;;;;;;;30.50;23.97;100227.94;6148799;28;20514;-90
2022/06/22 14:58:20;;;;;;;1.02;1.00;;;;;;;30.61;25.38;100216.22;6150731;28;20063;-89
2022/06/22 15:01:39;;;;;;;3.13;1.33;;;;;;;30.79;25.57;100209.59;6149126;28;20050;-89
2022/06/22 15:05:02;;;;;;;2.20;1.20;;;;;;;30.80;24.42;100208.53;6149263;28;20090;-89
2022/06/22 15:08:17;;;;;;;3.22;1.65;;;;;;;30.86;24.62;100216.31;6147598;28;20118;-89
2022/06/22 15:15:30;;;;;;;1.30;0.95;;;;;;;30.71;25.66;100197.56;6150828;28;20047;-92
2022/06/22 15:18:53;;;;;;;1.80;1.00;;;;;;;30.93;26.77;100205.38;6133224;28;20414;-91
2022/06/22 15:22:31;;;;;;;1.00;0.88;;;;;;;31.09;23.11;100198.97;6123564;29;20097;-91
2022/06/22 15:26:34;;;;;;;2.10;1.45;;;;;;;31.10;22.96;100202.47;6101737;29;20069;-90
2022/06/22 15:29:55;;;;;;;1.77;1.00;;;;;;;30.99;24.99;100193.63;6090797;29;20067;-91
2022/06/22 15:33:16;;;;;;;1.67;1.00;;;;;;;31.13;24.00;100188.56;6086879;29;20055;-90
2022/06/22 15:36:32;;;;;;;2.70;1.10;;;;;;;31.13;23.38;100183.22;6093208;29;20087;-90
2022/06/22 15:39:40;;;;;;;1.20;1.08;;;;;;;31.14;24.06;100194.72;6138168;28;20445;-91
2022/06/22 15:42:46;;;;;;;2.38;1.00;;;;;;;31.26;23.65;100192.59;6121477;29;20055;-91
2022/06/22 15:46:02;;;;;;;1.90;1.33;;;;;;;31.49;24.88;100197.41;6122755;29;20051;-90
2022/06/22 15:49:26;;;;;;;4.05;1.23;;;;;;;31.87;22.15;100191.75;6138481;28;20046;-91